createdAt,value
2023-03-31T00:01:25.247Z,4.40
2023-03-31T00:04:02.085Z,4.32
2023-03-31T00:06:29.890Z,3.60
2023-03-31T00:09:01.995Z,3.33
2023-03-31T00:11:29.844Z,3.60
2023-03-31T00:13:57.569Z,3.75
2023-03-31T00:16:25.605Z,3.83
2023-03-31T00:18:52.915Z,3.28
2023-03-31T00:21:25.544Z,3.50
2023-03-31T00:23:54.076Z,3.28
2023-03-31T00:26:30.655Z,2.90
2023-03-31T00:28:58.108Z,3.15
2023-03-31T00:31:25.505Z,2.55
2023-03-31T00:33:54.140Z,2.40
2023-03-31T00:36:21.779Z,2.38
2023-03-31T00:38:59.202Z,2.42
2023-03-31T00:41:27.644Z,2.05
2023-03-31T00:44:13.744Z,1.95
2023-03-31T00:46:51.133Z,1.80
2023-03-31T00:49:30.151Z,2.00
2023-03-31T00:52:02.408Z,2.33
2023-03-31T00:54:30.524Z,2.17
2023-03-31T00:56:58.728Z,2.50
2023-03-31T00:59:27.993Z,2.65
2023-03-31T01:01:59.229Z,2.20
2023-03-31T01:04:28.390Z,2.08
2023-03-31T01:07:00.993Z,2.17
2023-03-31T01:09:34.900Z,1.98
2023-03-31T01:12:07.758Z,2.25
2023-03-31T01:14:35.681Z,2.35
2023-03-31T01:17:05.321Z,2.50
2023-03-31T01:20:14.008Z,3.13
2023-03-31T01:22:59.501Z,3.28
2023-03-31T01:25:45.451Z,2.65
2023-03-31T01:28:18.580Z,2.58
2023-03-31T01:31:01.141Z,3.10
2023-03-31T01:33:55.125Z,2.72
2023-03-31T01:36:42.578Z,2.80
2023-03-31T01:39:18.744Z,2.50
2023-03-31T01:42:10.262Z,2.33
2023-03-31T01:44:55.418Z,2.58
2023-03-31T01:47:46.109Z,2.78
2023-03-31T01:50:36.550Z,2.50
2023-03-31T01:53:15.060Z,2.22
2023-03-31T01:56:08.433Z,2.00
2023-03-31T01:58:38.862Z,2.13
2023-03-31T02:01:17.064Z,2.30
2023-03-31T02:03:48.394Z,2.30
2023-03-31T02:06:22.025Z,2.15
2023-03-31T02:08:58.502Z,2.13
2023-03-31T02:11:25.905Z,2.30
2023-03-31T02:13:54.248Z,2.45
2023-03-31T02:16:24.590Z,2.75
2023-03-31T02:18:54.287Z,2.55
2023-03-31T02:21:22.891Z,2.80
2023-03-31T02:23:51.059Z,2.15
2023-03-31T02:26:22.037Z,2.03
2023-03-31T02:28:49.836Z,2.22
2023-03-31T02:31:33.261Z,2.30
2023-03-31T02:34:01.744Z,2.60
2023-03-31T02:36:29.689Z,3.35
2023-03-31T02:39:09.945Z,2.83
2023-03-31T02:41:37.411Z,2.60
2023-03-31T02:44:04.651Z,3.00
2023-03-31T02:46:32.771Z,2.60
2023-03-31T02:49:01.237Z,2.08
2023-03-31T02:52:06.956Z,2.45
2023-03-31T02:54:56.234Z,2.35
2023-03-31T02:57:55.392Z,3.17
2023-03-31T03:00:47.245Z,3.78
2023-03-31T03:03:45.947Z,3.25
2023-03-31T03:06:53.865Z,3.63
2023-03-31T03:09:29.867Z,3.65
2023-03-31T03:12:06.753Z,4.07
2023-03-31T03:15:03.222Z,4.90
2023-03-31T03:17:40.361Z,4.55
2023-03-31T03:20:09.317Z,5.72
2023-03-31T03:22:38.954Z,5.85
2023-03-31T03:25:11.705Z,5.82
2023-03-31T03:27:40.440Z,5.38
2023-03-31T03:30:09.488Z,5.50
2023-03-31T03:32:37.404Z,4.88
2023-03-31T03:35:05.340Z,4.80
2023-03-31T03:37:32.767Z,5.22
2023-03-31T03:40:00.073Z,5.30
2023-03-31T03:42:28.039Z,5.57
2023-03-31T03:44:57.920Z,5.03
2023-03-31T03:47:25.421Z,5.05
2023-03-31T03:49:53.065Z,5.28
2023-03-31T03:52:21.556Z,5.22
2023-03-31T03:54:49.220Z,4.85
2023-03-31T03:57:16.751Z,5.00
2023-03-31T03:59:44.132Z,5.45
2023-03-31T04:02:11.482Z,6.60
2023-03-31T04:04:39.234Z,6.18
2023-03-31T04:07:06.581Z,6.10
2023-03-31T04:09:33.890Z,6.78
2023-03-31T04:12:02.196Z,7.05
2023-03-31T04:14:29.588Z,6.70
2023-03-31T04:17:02.718Z,7.70
2023-03-31T04:19:31.174Z,7.47
2023-03-31T04:22:02.930Z,9.07
2023-03-31T04:24:33.602Z,10.27
2023-03-31T04:27:01.137Z,11.38
2023-03-31T04:29:28.365Z,11.75
2023-03-31T04:31:58.890Z,11.20
2023-03-31T04:34:34.948Z,12.32
2023-03-31T04:37:03.548Z,13.52
2023-03-31T04:39:30.993Z,12.38
2023-03-31T04:41:58.992Z,11.95
2023-03-31T04:44:27.299Z,10.23
2023-03-31T04:46:54.935Z,9.52
2023-03-31T04:49:25.185Z,11.27
2023-03-31T04:51:52.453Z,10.25
2023-03-31T04:54:26.152Z,9.50
2023-03-31T04:56:54.771Z,9.48
2023-03-31T04:59:22.055Z,11.77
2023-03-31T05:01:49.378Z,13.10
2023-03-31T05:04:16.716Z,13.07
2023-03-31T05:06:44.244Z,14.07
2023-03-31T05:09:11.666Z,15.75
2023-03-31T05:11:39.197Z,13.48
2023-03-31T05:14:06.905Z,13.10
2023-03-31T05:16:34.279Z,11.15
2023-03-31T05:19:01.622Z,12.38
2023-03-31T05:21:30.635Z,12.32
2023-03-31T05:23:58.084Z,10.70
2023-03-31T05:26:25.627Z,10.18
2023-03-31T05:28:53.985Z,9.60
2023-03-31T05:31:22.230Z,10.15
2023-03-31T05:33:50.612Z,10.10
2023-03-31T05:36:18.559Z,8.35
2023-03-31T05:38:47.672Z,8.35
2023-03-31T05:41:16.799Z,10.38
2023-03-31T05:43:44.130Z,8.65
2023-03-31T05:46:11.600Z,8.02
2023-03-31T05:48:39.142Z,8.55
2023-03-31T05:51:06.518Z,7.95
2023-03-31T05:53:34.378Z,7.75
2023-03-31T05:56:06.311Z,7.95
2023-03-31T05:58:37.350Z,8.50
2023-03-31T06:01:10.323Z,8.57
2023-03-31T06:03:41.528Z,9.20
2023-03-31T06:06:10.521Z,7.40
2023-03-31T06:08:38.018Z,6.50
2023-03-31T06:11:06.974Z,6.70
2023-03-31T06:13:35.743Z,6.38
2023-03-31T06:16:05.722Z,5.13
2023-03-31T06:18:35.104Z,5.55
2023-03-31T06:21:02.782Z,4.20
2023-03-31T06:23:30.980Z,4.07
2023-03-31T06:26:07.114Z,4.70
2023-03-31T06:28:36.503Z,4.43
2023-03-31T06:31:05.400Z,5.05
2023-03-31T06:33:33.991Z,4.10
2023-03-31T06:36:05.808Z,5.32
2023-03-31T06:38:34.180Z,5.43
2023-03-31T06:41:02.955Z,5.15
2023-03-31T06:43:31.391Z,5.05
2023-03-31T06:45:58.750Z,5.00
2023-03-31T06:48:26.456Z,5.53
2023-03-31T06:50:54.340Z,5.10
2023-03-31T06:53:24.551Z,4.35
2023-03-31T06:55:52.191Z,4.90
2023-03-31T06:58:20.082Z,4.72
2023-03-31T07:00:47.583Z,4.85
2023-03-31T07:03:25.840Z,6.55
2023-03-31T07:05:53.567Z,7.00
2023-03-31T07:08:21.890Z,6.25
2023-03-31T07:10:50.254Z,6.03
2023-03-31T07:13:20.246Z,5.32
2023-03-31T07:15:48.236Z,6.47
2023-03-31T07:18:16.252Z,8.00
2023-03-31T07:20:43.734Z,8.52
2023-03-31T07:23:11.343Z,7.43
2023-03-31T07:25:39.885Z,8.85
2023-03-31T07:28:07.827Z,5.60
2023-03-31T07:30:35.129Z,7.93
2023-03-31T07:33:02.684Z,5.45
2023-03-31T07:35:30.971Z,7.15
2023-03-31T07:37:58.764Z,5.47
2023-03-31T07:40:27.807Z,5.03
2023-03-31T07:42:55.175Z,5.10
2023-03-31T07:45:23.979Z,12.18
2023-03-31T07:47:52.298Z,10.13
2023-03-31T07:50:20.826Z,14.65
2023-03-31T07:52:48.068Z,6.85
2023-03-31T07:55:15.573Z,8.95
2023-03-31T07:57:46.904Z,7.50
2023-03-31T08:00:15.803Z,10.68
2023-03-31T08:02:46.574Z,5.75
2023-03-31T08:05:15.150Z,9.68
2023-03-31T08:07:43.479Z,8.32
2023-03-31T08:10:16.325Z,7.43
2023-03-31T08:12:44.472Z,7.82
2023-03-31T08:15:11.771Z,6.32
2023-03-31T08:17:39.647Z,6.55
2023-03-31T08:20:08.461Z,5.75
2023-03-31T08:22:39.072Z,3.67
2023-03-31T08:25:08.315Z,5.03
2023-03-31T08:27:37.082Z,8.00
2023-03-31T08:30:06.634Z,8.63
2023-03-31T08:32:43.545Z,8.70
2023-03-31T08:35:10.953Z,14.68
2023-03-31T08:37:39.903Z,7.53
2023-03-31T08:40:09.786Z,8.57
2023-03-31T08:42:40.757Z,10.30
2023-03-31T08:45:23.359Z,7.07
2023-03-31T08:47:53.830Z,9.75
2023-03-31T08:50:23.943Z,8.47
2023-03-31T08:53:05.049Z,4.25
2023-03-31T08:55:46.613Z,4.65
2023-03-31T08:58:42.884Z,7.40
2023-03-31T09:01:19.872Z,8.48
2023-03-31T09:04:12.802Z,6.97
2023-03-31T09:07:02.486Z,9.15
2023-03-31T09:09:48.358Z,5.15
2023-03-31T09:12:19.828Z,3.65
2023-03-31T09:15:17.714Z,10.27
2023-03-31T09:17:45.165Z,5.50
2023-03-31T09:20:15.987Z,6.45
2023-03-31T09:22:47.161Z,4.03
2023-03-31T09:25:24.106Z,9.35
2023-03-31T09:27:51.513Z,5.30
2023-03-31T09:30:32.178Z,8.07
2023-03-31T09:33:12.708Z,4.93
2023-03-31T09:35:40.456Z,4.10
2023-03-31T09:38:11.656Z,3.55
2023-03-31T09:40:40.453Z,7.20
2023-03-31T09:43:16.446Z,4.35
2023-03-31T09:45:46.211Z,6.82
2023-03-31T09:48:21.730Z,10.10
2023-03-31T09:50:50.893Z,9.55
2023-03-31T09:53:22.144Z,6.45
2023-03-31T09:55:52.631Z,6.25
2023-03-31T09:58:20.959Z,7.80
2023-03-31T10:01:05.344Z,7.68
2023-03-31T10:03:37.151Z,5.30
2023-03-31T10:09:04.159Z,5.43
2023-03-31T10:11:31.564Z,3.20
2023-03-31T10:14:04.056Z,6.15
2023-03-31T10:16:35.087Z,9.00
2023-03-31T10:19:36.474Z,5.30
2023-03-31T10:22:16.729Z,5.35
2023-03-31T10:24:45.473Z,6.40
2023-03-31T10:27:30.043Z,5.28
2023-03-31T10:30:01.971Z,7.10
2023-03-31T10:32:31.153Z,8.02
2023-03-31T10:35:11.894Z,6.10
2023-03-31T10:37:40.721Z,8.10
2023-03-31T10:40:27.286Z,6.47
2023-03-31T10:43:13.232Z,4.50
2023-03-31T10:45:51.649Z,4.47
2023-03-31T10:48:23.766Z,8.23
2023-03-31T10:50:51.183Z,6.28
2023-03-31T10:53:18.815Z,3.90
2023-03-31T10:56:19.014Z,6.13
2023-03-31T10:58:58.350Z,5.10
2023-03-31T11:01:54.292Z,6.47
2023-03-31T11:04:43.453Z,9.20
2023-03-31T11:07:36.786Z,6.57
2023-03-31T11:10:25.791Z,7.93
2023-03-31T11:13:01.249Z,5.75
2023-03-31T11:15:57.013Z,5.05
2023-03-31T11:18:46.812Z,4.68
2023-03-31T11:21:39.743Z,5.20
2023-03-31T11:24:51.100Z,6.35
2023-03-31T11:27:31.473Z,4.63
2023-03-31T11:30:27.088Z,7.00
2023-03-31T11:33:22.730Z,6.03
2023-03-31T11:35:57.096Z,6.28
2023-03-31T11:38:27.370Z,9.07
2023-03-31T11:40:59.915Z,6.55
2023-03-31T11:43:42.889Z,6.35
2023-03-31T11:46:17.948Z,11.70
2023-03-31T11:48:58.181Z,7.10
2023-03-31T11:51:47.404Z,6.53
2023-03-31T11:54:38.176Z,6.07
2023-03-31T11:59:59.915Z,5.20
2023-03-31T12:02:50.557Z,6.57
2023-03-31T12:05:18.065Z,9.40
2023-03-31T12:08:07.054Z,8.60
2023-03-31T12:10:35.967Z,5.35
2023-03-31T12:13:43.666Z,9.68
2023-03-31T12:16:13.043Z,9.43
2023-03-31T12:18:45.468Z,6.30
2023-03-31T12:21:18.088Z,4.95
2023-03-31T12:23:46.180Z,5.90
2023-03-31T12:26:32.001Z,8.30
2023-03-31T12:29:01.741Z,3.75
2023-03-31T12:31:32.662Z,6.45
2023-03-31T12:34:05.988Z,3.58
2023-03-31T12:36:42.196Z,6.15
2023-03-31T12:39:18.036Z,7.07
2023-03-31T12:42:24.658Z,8.88
2023-03-31T12:44:57.094Z,8.55
2023-03-31T12:47:45.699Z,6.65
2023-03-31T12:50:22.047Z,8.05
2023-03-31T12:52:56.921Z,5.78
2023-03-31T12:55:37.780Z,7.55
2023-03-31T12:58:32.381Z,5.97
2023-03-31T13:01:14.751Z,7.43
2023-03-31T13:04:08.510Z,9.70
2023-03-31T13:06:38.492Z,6.03
2023-03-31T13:09:08.668Z,9.05
2023-03-31T13:11:37.099Z,12.93
2023-03-31T13:14:23.161Z,9.02
2023-03-31T13:17:11.050Z,8.93
2023-03-31T13:19:39.972Z,7.43
2023-03-31T13:22:07.521Z,5.93
2023-03-31T13:24:34.866Z,5.97
2023-03-31T13:27:28.342Z,10.70
2023-03-31T13:29:56.368Z,8.77
2023-03-31T13:32:25.467Z,10.40
2023-03-31T13:35:00.497Z,9.13
2023-03-31T13:37:45.267Z,8.48
2023-03-31T13:40:45.788Z,8.02
2023-03-31T13:46:19.058Z,14.88
2023-03-31T13:49:11.257Z,40.65
2023-03-31T13:52:04.327Z,3.28
2023-03-31T13:54:37.871Z,7.45
2023-03-31T13:57:39.344Z,10.45
2023-03-31T14:00:24.758Z,9.73
2023-03-31T14:03:14.325Z,6.28
2023-03-31T14:06:02.816Z,11.88
2023-03-31T14:08:38.279Z,6.97
2023-03-31T14:11:34.882Z,6.85
2023-03-31T14:14:07.827Z,10.05
2023-03-31T14:16:57.120Z,8.13
2023-03-31T14:19:39.471Z,10.40
2023-03-31T14:22:16.268Z,8.32
2023-03-31T14:25:13.939Z,12.82
2023-03-31T14:28:13.741Z,6.68
2023-03-31T14:31:03.036Z,12.10
2023-03-31T14:33:39.719Z,10.55
2023-03-31T14:36:30.801Z,13.60
2023-03-31T14:39:02.496Z,16.35
2023-03-31T14:41:30.036Z,18.10
2023-03-31T14:44:04.877Z,9.77
2023-03-31T14:46:33.062Z,8.63
2023-03-31T14:49:18.581Z,6.40
2023-03-31T14:51:48.750Z,8.02
2023-03-31T14:54:18.071Z,5.25
2023-03-31T14:56:51.947Z,9.07
2023-03-31T14:59:21.976Z,4.35
2023-03-31T15:01:50.434Z,6.50
2023-03-31T15:04:25.921Z,6.45
2023-03-31T15:07:02.539Z,9.80
2023-03-31T15:09:31.368Z,10.55
2023-03-31T15:12:03.731Z,10.40
2023-03-31T15:14:34.123Z,5.63
2023-03-31T15:17:01.843Z,6.07
2023-03-31T15:19:33.314Z,3.72
2023-03-31T15:22:05.786Z,5.00
2023-03-31T15:24:33.261Z,10.07
2023-03-31T15:27:01.898Z,9.88
2023-03-31T15:29:29.083Z,10.65
2023-03-31T15:31:57.383Z,8.00
2023-03-31T15:34:33.580Z,8.82
2023-03-31T15:37:06.648Z,9.88
2023-03-31T15:39:34.612Z,7.57
2023-03-31T15:42:02.886Z,8.70
2023-03-31T15:44:33.928Z,6.00
2023-03-31T15:47:02.415Z,10.35
2023-03-31T15:49:29.812Z,10.82
2023-03-31T15:51:57.695Z,9.13
2023-03-31T15:54:34.971Z,9.38
2023-03-31T15:57:04.151Z,6.85
2023-03-31T16:02:43.906Z,8.30
2023-03-31T16:05:27.066Z,8.75
2023-03-31T16:07:56.933Z,8.82
2023-03-31T16:10:24.349Z,4.10
2023-03-31T16:12:59.626Z,4.40
2023-03-31T16:15:44.824Z,5.43
2023-03-31T16:18:18.670Z,5.18
2023-03-31T16:20:52.121Z,9.48
2023-03-31T16:23:28.904Z,5.68
2023-03-31T16:25:56.438Z,8.27
2023-03-31T16:28:27.782Z,9.05
2023-03-31T16:30:55.120Z,8.50
2023-03-31T16:33:25.469Z,7.57
2023-03-31T16:35:55.953Z,5.88
2023-03-31T16:38:24.259Z,8.13
2023-03-31T16:40:56.228Z,12.15
2023-03-31T16:43:24.873Z,5.47
2023-03-31T16:45:58.359Z,9.05
2023-03-31T16:48:27.341Z,7.97
2023-03-31T16:50:58.105Z,8.27
2023-03-31T16:53:27.924Z,6.15
2023-03-31T16:55:55.576Z,6.43
2023-03-31T16:58:24.407Z,7.50
2023-03-31T17:00:51.785Z,9.63
2023-03-31T17:03:20.656Z,8.30
2023-03-31T17:05:52.794Z,6.50
2023-03-31T17:08:21.737Z,9.05
2023-03-31T17:10:53.980Z,7.10
2023-03-31T17:13:22.819Z,5.00
2023-03-31T17:15:52.144Z,7.00
2023-03-31T17:18:23.336Z,8.02
2023-03-31T17:20:50.705Z,8.32
2023-03-31T17:23:17.922Z,8.60
2023-03-31T17:25:52.930Z,9.65
2023-03-31T17:28:20.279Z,8.20
2023-03-31T17:30:50.299Z,6.65
2023-03-31T17:33:18.467Z,14.68
2023-03-31T17:35:45.707Z,29.42
2023-03-31T17:38:14.451Z,7.80
2023-03-31T17:40:41.834Z,7.72
2023-03-31T17:43:09.487Z,7.43
2023-03-31T17:45:36.937Z,8.50
2023-03-31T17:48:06.983Z,7.10
2023-03-31T17:50:34.669Z,5.75
2023-03-31T17:53:01.963Z,5.13
2023-03-31T17:55:29.595Z,4.28
2023-03-31T17:57:57.335Z,6.65
2023-03-31T18:00:24.644Z,4.63
2023-03-31T18:02:52.412Z,8.43
2023-03-31T18:05:19.772Z,7.97
2023-03-31T18:07:47.735Z,10.50
2023-03-31T18:10:14.939Z,3.80
2023-03-31T18:12:47.790Z,5.13
2023-03-31T18:15:15.884Z,4.25
2023-03-31T18:17:43.476Z,6.80
2023-03-31T18:20:11.806Z,6.55
2023-03-31T18:22:39.294Z,5.72
2023-03-31T18:25:07.397Z,5.13
2023-03-31T18:27:35.389Z,4.10
2023-03-31T18:30:03.132Z,5.90
2023-03-31T18:32:32.875Z,6.93
2023-03-31T18:35:01.030Z,7.47
2023-03-31T18:37:28.918Z,6.57
2023-03-31T18:39:56.161Z,4.65
2023-03-31T18:42:25.755Z,5.53
2023-03-31T18:44:53.162Z,3.67
2023-03-31T18:47:21.477Z,2.95
2023-03-31T18:49:53.359Z,3.70
2023-03-31T18:52:20.753Z,6.70
2023-03-31T18:54:47.971Z,3.92
2023-03-31T18:57:15.671Z,4.80
2023-03-31T18:59:45.371Z,3.92
2023-03-31T19:02:14.058Z,4.93
2023-03-31T19:04:41.660Z,4.03
2023-03-31T19:07:09.101Z,7.03
2023-03-31T19:09:37.044Z,4.00
2023-03-31T19:12:11.120Z,4.78
2023-03-31T19:14:40.998Z,5.00
2023-03-31T19:17:08.749Z,4.68
2023-03-31T19:19:36.740Z,2.88
2023-03-31T19:22:05.058Z,4.43
2023-03-31T19:24:32.467Z,3.20
2023-03-31T19:27:01.871Z,3.58
2023-03-31T19:29:30.382Z,3.08
2023-03-31T19:34:27.762Z,3.28
2023-03-31T19:36:55.113Z,2.95
2023-03-31T19:39:22.635Z,3.00
2023-03-31T19:41:50.369Z,3.97
2023-03-31T19:44:17.916Z,3.20
2023-03-31T19:46:48.237Z,3.85
2023-03-31T19:49:15.879Z,4.43
2023-03-31T19:51:43.137Z,4.85
2023-03-31T19:54:11.432Z,5.20
2023-03-31T19:56:38.994Z,3.65
2023-03-31T19:59:07.807Z,3.22
2023-03-31T20:01:35.739Z,2.63
2023-03-31T20:04:05.054Z,3.28
2023-03-31T20:06:33.965Z,5.38
2023-03-31T20:09:01.600Z,5.53
2023-03-31T20:11:29.683Z,4.90
2023-03-31T20:13:57.351Z,3.70
2023-03-31T20:16:26.077Z,6.72
2023-03-31T20:19:00.041Z,3.30
2023-03-31T20:21:28.838Z,3.90
2023-03-31T20:23:58.917Z,3.28
2023-03-31T20:26:31.581Z,3.10
2023-03-31T20:31:28.189Z,3.45
2023-03-31T20:33:56.195Z,3.95
2023-03-31T20:36:25.380Z,4.03
2023-03-31T20:38:53.918Z,3.17
2023-03-31T20:41:23.917Z,2.92
2023-03-31T20:43:51.482Z,3.00
2023-03-31T20:46:18.793Z,2.95
2023-03-31T20:48:48.077Z,2.95
2023-03-31T20:51:17.336Z,3.85
2023-03-31T20:53:46.780Z,3.75
2023-03-31T20:56:15.799Z,3.70
2023-03-31T20:58:44.406Z,2.78
2023-03-31T21:01:12.698Z,3.10
2023-03-31T21:03:41.266Z,3.42
2023-03-31T21:06:12.785Z,3.00
2023-03-31T21:08:45.539Z,3.30
2023-03-31T21:11:13.624Z,3.30
2023-03-31T21:13:41.456Z,3.00
2023-03-31T21:16:09.105Z,3.15
2023-03-31T21:18:37.769Z,2.88
2023-03-31T21:21:16.672Z,2.47
2023-03-31T21:23:45.021Z,2.83
2023-03-31T21:26:14.180Z,2.97
2023-03-31T21:28:41.415Z,2.47
2023-03-31T21:31:10.591Z,3.05
2023-03-31T21:33:40.915Z,2.25
2023-03-31T21:36:10.160Z,2.97
2023-03-31T21:38:37.589Z,3.40
2023-03-31T21:41:12.852Z,3.30
2023-03-31T21:43:41.034Z,2.70
2023-03-31T21:46:08.408Z,3.38
2023-03-31T21:48:37.202Z,2.90
2023-03-31T21:51:04.723Z,3.28
2023-03-31T21:53:32.500Z,3.13
2023-03-31T21:56:00.038Z,3.00
2023-03-31T21:58:29.135Z,2.33
2023-03-31T22:01:01.253Z,2.08
2023-03-31T22:03:34.106Z,2.72
2023-03-31T22:06:02.927Z,2.60
2023-03-31T22:08:31.485Z,3.13
2023-03-31T22:11:00.553Z,2.67
2023-03-31T22:13:28.543Z,2.20
2023-03-31T22:15:56.346Z,2.92
2023-03-31T22:18:23.936Z,2.10
2023-03-31T22:20:51.404Z,3.00
2023-03-31T22:23:20.667Z,2.45
2023-03-31T22:25:48.189Z,2.38
2023-03-31T22:28:16.228Z,2.30
2023-03-31T22:30:44.934Z,2.72
2023-03-31T22:33:13.083Z,2.45
2023-03-31T22:35:40.382Z,3.20
2023-03-31T22:38:08.696Z,2.78
2023-03-31T22:40:36.399Z,2.17
2023-03-31T22:43:04.759Z,2.60
2023-03-31T22:45:32.395Z,3.03
2023-03-31T22:47:59.807Z,2.33
2023-03-31T22:50:27.311Z,2.55
2023-03-31T22:52:54.774Z,2.38
2023-03-31T22:55:22.006Z,2.50
2023-03-31T22:57:49.280Z,2.38
2023-03-31T23:00:18.214Z,2.30
2023-03-31T23:02:46.653Z,2.63
2023-03-31T23:05:14.068Z,2.42
2023-03-31T23:07:43.262Z,1.77
2023-03-31T23:10:11.296Z,2.35
2023-03-31T23:12:38.577Z,3.10
2023-03-31T23:15:06.379Z,3.05
2023-03-31T23:17:34.187Z,3.10
2023-03-31T23:20:04.063Z,3.10
2023-03-31T23:22:32.334Z,2.38
2023-03-31T23:24:59.605Z,2.35
2023-03-31T23:27:26.860Z,3.17
2023-03-31T23:29:54.106Z,2.80
2023-03-31T23:32:23.502Z,4.00
2023-03-31T23:34:51.497Z,3.08
2023-03-31T23:37:19.059Z,2.25
2023-03-31T23:39:47.818Z,2.85
2023-03-31T23:42:19.726Z,3.88
2023-03-31T23:44:47.002Z,2.92
2023-03-31T23:47:14.414Z,3.13
2023-03-31T23:49:41.659Z,2.60
2023-03-31T23:52:09.033Z,2.67
2023-03-31T23:54:36.423Z,2.60
2023-03-31T23:57:05.755Z,2.90
2023-03-31T23:59:33.714Z,3.38
